Time;durP1;ratioP1;P1;durP2;ratioP2;P2;SDS_P1;SDS_P2;PMS_P1;PMS_P2;Temp;Humidity;BMP_temperature;BMP_pressure;BME280_temperature;BME280_humidity;BME280_pressure;Samples;Min_cycle;Max_cycle;Signal;HPM_P1;HPM_P2
2022/05/28 00:00:56;;;;;;;5.20;1.50;;;10.60;99.90;;;;;;4846585;29;20186;-81
2022/05/28 00:03:24;;;;;;;6.63;1.27;;;10.60;99.90;;;;;;4845118;29;20249;-82
2022/05/28 00:05:51;;;;;;;5.43;1.23;;;10.70;99.90;;;;;;4845261;29;20190;-82
2022/05/28 00:08:17;;;;;;;7.87;1.57;;;10.70;99.90;;;;;;4845243;29;20677;-82
2022/05/28 00:10:44;;;;;;;7.47;1.30;;;10.70;99.90;;;;;;4845086;29;20238;-82
2022/05/28 00:13:10;;;;;;;7.83;1.40;;;10.70;99.90;;;;;;4845119;29;20189;-82
2022/05/28 00:15:36;;;;;;;4.33;1.10;;;10.70;99.90;;;;;;4846168;29;20265;-82
2022/05/28 00:18:02;;;;;;;7.97;1.23;;;10.70;99.90;;;;;;4842370;29;20208;-82
2022/05/28 00:20:29;;;;;;;6.33;1.10;;;10.70;99.90;;;;;;4821995;29;20636;-80
2022/05/28 00:22:55;;;;;;;6.65;2.05;;;10.70;99.90;;;;;;4837213;29;20186;-84
2022/05/28 00:25:21;;;;;;;3.37;1.20;;;10.70;99.90;;;;;;4827073;29;20642;-83
2022/05/28 00:27:47;;;;;;;6.50;1.37;;;10.70;99.90;;;;;;5237305;23;20336;-81
2022/05/28 00:30:16;;;;;;;5.47;1.00;;;10.60;99.90;;;;;;4810318;29;20347;-85
2022/05/28 00:32:43;;;;;;;6.57;1.20;;;10.60;99.90;;;;;;4809416;29;20241;-84
2022/05/28 00:35:13;;;;;;;2.80;0.93;;;10.50;99.90;;;;;;4809063;29;20203;-82
2022/05/28 00:37:39;;;;;;;4.37;0.87;;;10.50;99.90;;;;;;4809801;29;20179;-81
2022/05/28 00:40:09;;;;;;;3.30;1.03;;;10.40;99.90;;;;;;4809328;29;20614;-81
2022/05/28 00:42:34;;;;;;;4.57;0.70;;;10.40;99.90;;;;;;4807534;29;20208;-82
2022/05/28 00:45:00;;;;;;;3.70;1.03;;;10.40;99.90;;;;;;4807950;29;20198;-83
2022/05/28 00:47:27;;;;;;;2.07;0.70;;;10.30;99.90;;;;;;4814071;29;20424;-81
2022/05/28 00:49:53;;;;;;;6.20;0.90;;;10.20;99.90;;;;;;4845407;29;20181;-82
2022/05/28 00:52:23;;;;;;;4.20;0.90;;;10.20;99.90;;;;;;4845551;29;20213;-83
2022/05/28 00:54:49;;;;;;;3.20;0.70;;;10.20;99.90;;;;;;4845471;29;20578;-82
2022/05/28 00:57:17;;;;;;;2.33;0.73;;;10.10;99.90;;;;;;4845535;29;20182;-82
2022/05/28 00:59:46;;;;;;;3.33;0.87;;;10.20;99.90;;;;;;4845167;29;20218;-82
2022/05/28 01:02:58;;;;;;;3.57;0.70;;;10.20;99.90;;;;;;4844296;29;20234;-82
2022/05/28 01:05:49;;;;;;;4.80;0.73;;;10.20;99.90;;;;;;4836986;29;20205;-81
2022/05/28 01:08:39;;;;;;;2.10;0.80;;;10.10;99.90;;;;;;4844273;29;20194;-85
2022/05/28 01:11:29;;;;;;;4.37;0.90;;;10.10;99.90;;;;;;4845106;29;20644;-82
2022/05/28 01:14:22;;;;;;;1.17;0.47;;;10.10;99.90;;;;;;4845280;29;20169;-80
2022/05/28 01:16:55;;;;;;;2.87;0.80;;;10.00;99.90;;;;;;4844221;29;20640;-82
2022/05/28 01:19:35;;;;;;;1.40;0.47;;;9.90;99.90;;;;;;4844002;29;20289;-84
2022/05/28 01:22:11;;;;;;;3.50;0.70;;;9.80;99.90;;;;;;4845126;29;20206;-84
2022/05/28 01:24:42;;;;;;;1.60;0.60;;;9.70;99.90;;;;;;4844972;29;20257;-83
2022/05/28 01:27:14;;;;;;;2.67;0.63;;;9.60;99.90;;;;;;4845203;29;20178;-84
2022/05/28 01:29:52;;;;;;;2.13;0.50;;;9.60;99.90;;;;;;4843684;29;20233;-85
2022/05/28 01:32:20;;;;;;;7.43;0.87;;;9.50;99.90;;;;;;4844872;29;20228;-83
2022/05/28 01:34:46;;;;;;;7.93;0.90;;;9.40;99.90;;;;;;4844764;29;20196;-85
2022/05/28 01:37:13;;;;;;;1.73;0.70;;;9.40;99.90;;;;;;4844433;29;20185;-85
2022/05/28 01:39:42;;;;;;;2.30;0.60;;;9.30;99.90;;;;;;4843429;29;20188;-85
2022/05/28 01:42:10;;;;;;;4.93;0.80;;;9.30;99.90;;;;;;4844654;29;20170;-85
2022/05/28 01:44:38;;;;;;;2.83;0.70;;;9.30;99.90;;;;;;4843218;29;20611;-84
2022/05/28 01:47:04;;;;;;;1.87;0.70;;;9.30;99.90;;;;;;4844713;29;20214;-83
2022/05/28 01:49:31;;;;;;;2.53;0.80;;;9.40;99.90;;;;;;4843099;29;20193;-84
2022/05/28 01:51:59;;;;;;;2.60;0.60;;;9.30;99.90;;;;;;4843533;29;20224;-84
2022/05/28 01:54:33;;;;;;;4.23;0.80;;;9.30;99.90;;;;;;4844282;29;20216;-85
2022/05/28 01:56:59;;;;;;;6.33;0.80;;;9.30;99.90;;;;;;4810865;29;20187;-83
2022/05/28 01:59:28;;;;;;;2.70;0.60;;;9.30;99.90;;;;;;4807980;29;20175;-84
2022/05/28 02:01:57;;;;;;;2.87;0.87;;;9.30;99.90;;;;;;4808130;29;20300;-84
2022/05/28 02:04:23;;;;;;;4.27;0.70;;;9.30;99.90;;;;;;4806487;29;20182;-84
2022/05/28 02:06:49;;;;;;;3.97;0.83;;;9.30;99.90;;;;;;4805859;29;20178;-84
2022/05/28 02:09:22;;;;;;;2.90;0.83;;;9.30;99.90;;;;;;4808029;29;20193;-84
2022/05/28 02:12:19;;;;;;;3.83;0.80;;;9.30;99.90;;;;;;4807582;29;20218;-83
2022/05/28 02:15:15;;;;;;;2.07;0.73;;;9.30;99.90;;;;;;4800659;29;20202;-84
2022/05/28 02:18:13;;;;;;;2.80;0.63;;;9.30;99.90;;;;;;4815105;29;20606;-84
2022/05/28 02:20:53;;;;;;;2.43;0.70;;;9.40;99.90;;;;;;4835223;29;20193;-84
2022/05/28 02:23:25;;;;;;;2.90;0.90;;;9.40;99.90;;;;;;4842805;29;20612;-84
2022/05/28 02:26:12;;;;;;;2.87;0.80;;;9.40;99.90;;;;;;4842863;29;20242;-85
2022/05/28 02:28:38;;;;;;;4.10;0.90;;;9.40;99.90;;;;;;4842498;29;20748;-84
2022/05/28 02:31:31;;;;;;;3.33;0.83;;;9.40;99.90;;;;;;4844040;29;20205;-84
2022/05/28 02:33:58;;;;;;;4.13;0.70;;;9.30;99.90;;;;;;4841677;29;20593;-84
2022/05/28 02:36:24;;;;;;;2.93;0.93;;;9.40;99.90;;;;;;4842670;29;20268;-83
2022/05/28 02:38:50;;;;;;;4.30;1.00;;;9.30;99.90;;;;;;4842519;29;20219;-82
2022/05/28 02:41:17;;;;;;;3.53;1.00;;;9.30;99.90;;;;;;4842583;29;20185;-83
2022/05/28 02:43:43;;;;;;;5.37;1.03;;;9.30;99.90;;;;;;4842379;29;20174;-83
2022/05/28 02:46:08;;;;;;;5.87;1.00;;;9.40;99.90;;;;;;4842381;29;20547;-82
2022/05/28 02:48:34;;;;;;;5.33;1.07;;;9.40;99.90;;;;;;4842200;29;20182;-83
2022/05/28 02:51:27;;;;;;;3.57;0.90;;;9.40;99.90;;;;;;4843732;29;20223;-83
2022/05/28 02:53:54;;;;;;;4.10;0.90;;;9.30;99.90;;;;;;4841599;29;20190;-82
2022/05/28 02:56:21;;;;;;;6.43;1.10;;;9.40;99.90;;;;;;4843535;29;20629;-82
2022/05/28 02:58:47;;;;;;;6.70;1.23;;;9.40;99.90;;;;;;4843684;29;20268;-83
2022/05/28 03:01:38;;;;;;;3.53;1.00;;;9.40;99.90;;;;;;4843616;29;20269;-83
2022/05/28 03:04:06;;;;;;;8.03;1.27;;;9.40;99.90;;;;;;4841013;29;20205;-82
2022/05/28 03:06:33;;;;;;;5.07;1.23;;;9.30;99.90;;;;;;4832639;29;20206;-84
2022/05/28 03:08:59;;;;;;;5.50;1.10;;;9.40;99.90;;;;;;4824243;29;20185;-83
2022/05/28 03:11:24;;;;;;;4.93;1.20;;;9.40;99.90;;;;;;4824417;29;20221;-83
2022/05/28 03:13:51;;;;;;;3.77;0.90;;;9.40;99.90;;;;;;4824073;29;20197;-82
2022/05/28 03:16:16;;;;;;;4.57;1.20;;;9.40;99.90;;;;;;4825277;29;20194;-82
2022/05/28 03:18:42;;;;;;;6.67;1.47;;;9.40;99.90;;;;;;4839376;29;20665;-83
2022/05/28 03:21:08;;;;;;;2.67;0.60;;;9.30;99.90;;;;;;4847210;29;20177;-84
2022/05/28 03:23:34;;;;;;;5.47;1.10;;;9.40;99.90;;;;;;4814554;29;20213;-84
2022/05/28 03:26:15;;;;;;;2.73;1.00;;;9.30;99.90;;;;;;4810874;29;20183;-82
2022/05/28 03:28:40;;;;;;;7.57;1.17;;;9.40;99.90;;;;;;4809166;29;20291;-84
2022/05/28 03:31:06;;;;;;;8.47;1.20;;;9.40;99.90;;;;;;4810370;29;20222;-83
2022/05/28 03:33:32;;;;;;;4.67;1.07;;;9.40;99.90;;;;;;4808811;29;20198;-84
2022/05/28 03:35:58;;;;;;;7.50;1.13;;;9.30;99.90;;;;;;4809064;29;20247;-85
2022/05/28 03:38:23;;;;;;;4.83;1.10;;;9.40;99.90;;;;;;4809183;29;20202;-84
2022/05/28 03:40:49;;;;;;;7.20;1.17;;;9.40;99.90;;;;;;4809123;29;20228;-84
2022/05/28 03:43:15;;;;;;;4.27;1.07;;;9.30;99.90;;;;;;4809198;29;20251;-84
2022/05/28 03:45:41;;;;;;;2.83;1.00;;;9.40;99.90;;;;;;4810005;29;20219;-84
2022/05/28 03:48:10;;;;;;;3.03;0.83;;;9.30;99.90;;;;;;4824025;29;20541;-84
2022/05/28 03:50:36;;;;;;;9.93;1.47;;;9.30;99.90;;;;;;4846325;29;20178;-84
2022/05/28 03:53:02;;;;;;;5.30;0.97;;;9.30;99.90;;;;;;4845353;29;20181;-84
2022/05/28 03:55:28;;;;;;;2.17;0.87;;;9.40;99.90;;;;;;4845243;29;20613;-84
2022/05/28 03:57:53;;;;;;;8.80;1.33;;;9.40;99.90;;;;;;4846533;29;20245;-85
2022/05/28 04:00:20;;;;;;;6.53;1.23;;;9.40;99.90;;;;;;4845264;29;20185;-84
2022/05/28 04:02:45;;;;;;;4.13;0.97;;;9.50;99.90;;;;;;4845411;29;20177;-84
2022/05/28 04:05:11;;;;;;;10.90;1.33;;;9.50;99.90;;;;;;4844741;29;20189;-84
2022/05/28 04:07:39;;;;;;;4.80;1.07;;;9.50;99.90;;;;;;4845009;29;20545;-83
2022/05/28 04:10:06;;;;;;;7.67;1.10;;;9.50;99.90;;;;;;4846136;29;20189;-84
2022/05/28 04:12:31;;;;;;;6.87;1.37;;;9.60;99.90;;;;;;4846286;29;20201;-84
2022/05/28 04:14:57;;;;;;;8.47;2.20;;;9.70;99.90;;;;;;4846089;29;20643;-84
2022/05/28 04:17:23;;;;;;;5.80;1.27;;;9.60;99.90;;;;;;4844606;29;20636;-84
2022/05/28 04:19:48;;;;;;;6.20;1.53;;;9.70;99.90;;;;;;4844725;29;20624;-83
2022/05/28 04:22:15;;;;;;;5.83;1.20;;;9.60;99.90;;;;;;4845046;29;20601;-85
2022/05/28 04:24:41;;;;;;;7.23;1.50;;;9.60;99.90;;;;;;4844842;29;20197;-82
2022/05/28 04:27:07;;;;;;;9.37;1.50;;;9.70;99.90;;;;;;4844702;29;20196;-83
2022/05/28 04:29:33;;;;;;;6.87;1.20;;;9.70;99.90;;;;;;4844138;29;20252;-83
2022/05/28 04:31:58;;;;;;;7.70;1.40;;;9.70;99.90;;;;;;4845939;29;20653;-83
2022/05/28 04:34:24;;;;;;;4.80;1.27;;;9.70;99.90;;;;;;4844376;29;20228;-83
2022/05/28 04:36:50;;;;;;;2.77;1.17;;;9.60;99.90;;;;;;4844775;29;20185;-83
2022/05/28 04:39:16;;;;;;;8.67;1.60;;;9.70;99.90;;;;;;4844672;29;20181;-84
2022/05/28 04:41:41;;;;;;;9.77;1.50;;;9.70;99.90;;;;;;4844542;29;20181;-83
2022/05/28 04:44:07;;;;;;;7.17;1.37;;;9.70;99.90;;;;;;4844440;29;20190;-83
2022/05/28 04:46:33;;;;;;;7.90;1.30;;;9.70;99.90;;;;;;4845748;29;20181;-83
2022/05/28 04:48:58;;;;;;;8.47;1.40;;;9.80;99.90;;;;;;4844847;29;20185;-83
2022/05/28 04:51:24;;;;;;;8.97;1.30;;;9.80;99.90;;;;;;4845236;29;20543;-83
2022/05/28 04:53:50;;;;;;;7.03;1.43;;;9.90;99.90;;;;;;4844435;29;20260;-84
2022/05/28 04:56:16;;;;;;;6.07;1.40;;;10.00;99.90;;;;;;4843922;29;20188;-83
2022/05/28 04:58:42;;;;;;;8.37;1.30;;;10.10;99.90;;;;;;4845351;29;20621;-84
2022/05/28 05:01:12;;;;;;;8.33;1.57;;;10.30;99.90;;;;;;4844247;29;20185;-85
2022/05/28 05:03:38;;;;;;;6.60;1.50;;;10.40;99.90;;;;;;4845232;29;20188;-84
2022/05/28 05:06:03;;;;;;;10.03;1.27;;;10.50;99.90;;;;;;4843788;29;20527;-84
2022/05/28 05:08:30;;;;;;;8.57;1.83;;;10.50;99.90;;;;;;4844061;29;20366;-84
2022/05/28 05:10:56;;;;;;;7.13;1.60;;;10.60;99.90;;;;;;4843712;29;20330;-85
2022/05/28 05:13:23;;;;;;;8.33;1.53;;;10.60;99.90;;;;;;4843625;29;20527;-84
2022/05/28 05:15:48;;;;;;;7.90;1.40;;;10.60;99.90;;;;;;4845093;29;20188;-83
2022/05/28 05:18:14;;;;;;;7.30;1.53;;;10.60;99.90;;;;;;4843947;29;20185;-83
2022/05/28 05:20:40;;;;;;;5.60;1.30;;;10.50;99.90;;;;;;4844944;29;20215;-83
2022/05/28 05:23:05;;;;;;;9.87;1.90;;;10.60;99.90;;;;;;4843784;29;20205;-85
2022/05/28 05:25:32;;;;;;;6.17;1.37;;;10.50;99.90;;;;;;4843585;29;20197;-84
2022/05/28 05:27:58;;;;;;;12.53;1.80;;;10.50;99.90;;;;;;4843871;29;20237;-83
2022/05/28 05:30:24;;;;;;;13.80;1.93;;;10.70;99.90;;;;;;4843505;29;20189;-82
2022/05/28 05:32:49;;;;;;;9.07;1.40;;;10.70;99.90;;;;;;4844832;29;20641;-83
2022/05/28 05:35:15;;;;;;;10.13;1.73;;;10.70;99.90;;;;;;4843172;29;20185;-84
2022/05/28 05:37:41;;;;;;;6.97;1.73;;;10.70;99.90;;;;;;4844688;29;20214;-84
2022/05/28 05:40:08;;;;;;;6.50;1.63;;;10.80;99.90;;;;;;4843876;29;20625;-83
2022/05/28 05:42:33;;;;;;;7.77;1.20;;;10.80;99.90;;;;;;4843434;29;20209;-83
2022/05/28 05:44:59;;;;;;;8.33;1.33;;;10.80;99.90;;;;;;4843442;29;20219;-84
2022/05/28 05:47:25;;;;;;;8.33;1.47;;;10.80;99.90;;;;;;4827573;29;20201;-83
2022/05/28 05:49:51;;;;;;;10.23;1.90;;;10.80;99.90;;;;;;4843225;29;20632;-84
2022/05/28 05:52:17;;;;;;;6.57;1.50;;;10.90;99.90;;;;;;4837273;29;20678;-83
2022/05/28 05:54:43;;;;;;;10.00;1.43;;;11.00;99.90;;;;;;4826120;29;20265;-83
2022/05/28 05:57:08;;;;;;;6.87;1.50;;;11.00;99.90;;;;;;4825079;29;20284;-85
2022/05/28 05:59:35;;;;;;;5.80;1.37;;;11.10;99.90;;;;;;4826441;29;20214;-84
2022/05/28 06:02:01;;;;;;;7.57;1.40;;;11.20;99.90;;;;;;4824853;29;20198;-84
2022/05/28 06:04:27;;;;;;;9.93;1.20;;;11.20;99.90;;;;;;4825898;29;20602;-83
2022/05/28 06:06:53;;;;;;;7.00;1.53;;;11.20;99.90;;;;;;4823910;29;20190;-84
2022/05/28 06:09:18;;;;;;;10.10;1.70;;;11.20;99.90;;;;;;4826121;29;20677;-83
2022/05/28 06:11:44;;;;;;;6.77;1.20;;;11.20;99.90;;;;;;4824817;29;20226;-83
2022/05/28 06:14:10;;;;;;;9.70;1.50;;;11.20;99.90;;;;;;4825325;29;20294;-82
2022/05/28 06:16:35;;;;;;;5.80;1.23;;;11.20;99.90;;;;;;4825422;29;20186;-83
2022/05/28 06:19:02;;;;;;;8.00;1.27;;;11.20;99.90;;;;;;4827791;29;20282;-83
2022/05/28 06:21:28;;;;;;;8.47;1.63;;;11.20;99.90;;;;;;4824503;29;20193;-83
2022/05/28 06:23:54;;;;;;;11.20;1.43;;;11.20;99.90;;;;;;4824799;29;20657;-84
2022/05/28 06:26:19;;;;;;;8.40;1.80;;;11.20;99.90;;;;;;4824580;29;20737;-84
2022/05/28 06:28:46;;;;;;;7.55;1.50;;;11.30;99.90;;;;;;4825811;29;20312;-84
2022/05/28 06:31:13;;;;;;;10.07;1.63;;;11.40;99.90;;;;;;4824601;29;20680;-82
2022/05/28 06:33:40;;;;;;;6.68;1.17;;;11.40;99.90;;;;;;4825734;29;20180;-84
2022/05/28 06:36:08;;;;;;;8.75;1.67;;;11.50;99.90;;;;;;4824201;29;20238;-83
2022/05/28 06:38:34;;;;;;;7.60;1.57;;;11.50;99.90;;;;;;4825466;29;20178;-84
2022/05/28 06:41:01;;;;;;;5.73;1.60;;;11.50;99.90;;;;;;4824266;29;20285;-83
2022/05/28 06:43:27;;;;;;;12.18;1.50;;;11.40;99.90;;;;;;4824256;29;20196;-84
2022/05/28 06:45:53;;;;;;;8.57;1.63;;;11.40;99.90;;;;;;4825445;29;20188;-83
2022/05/28 06:48:19;;;;;;;7.83;1.87;;;11.30;99.90;;;;;;4834624;29;20189;-85
2022/05/28 06:51:03;;;;;;;7.40;1.48;;;11.30;99.90;;;;;;4842160;29;20193;-83
2022/05/28 06:53:40;;;;;;;9.85;1.73;;;11.40;99.90;;;;;;4843672;29;20177;-83
2022/05/28 06:56:07;;;;;;;9.05;1.80;;;11.50;99.90;;;;;;4843706;29;20175;-85
2022/05/28 06:58:33;;;;;;;8.90;1.65;;;11.60;99.90;;;;;;4842379;29;20249;-84
2022/05/28 07:01:00;;;;;;;9.60;1.75;;;11.70;99.90;;;;;;4843390;29;20193;-83
2022/05/28 07:03:27;;;;;;;5.57;1.05;;;11.80;99.90;;;;;;4843539;29;20173;-83
2022/05/28 07:05:54;;;;;;;6.82;1.20;;;11.80;99.90;;;;;;4843233;29;20339;-83
2022/05/28 07:08:21;;;;;;;6.47;1.80;;;12.00;99.90;;;;;;4843408;29;20566;-84
2022/05/28 07:10:53;;;;;;;6.20;1.67;;;12.20;99.90;;;;;;4843540;29;20189;-85
2022/05/28 07:13:20;;;;;;;6.85;1.52;;;12.20;99.90;;;;;;4842412;29;20590;-85
2022/05/28 07:15:47;;;;;;;6.75;1.70;;;12.20;99.90;;;;;;4831068;29;20548;-84
2022/05/28 07:18:13;;;;;;;8.70;1.87;;;12.20;99.90;;;;;;4824660;29;20197;-83
2022/05/28 07:20:39;;;;;;;5.03;1.38;;;12.10;99.90;;;;;;4824885;29;20192;-85
2022/05/28 07:23:25;;;;;;;9.65;1.95;;;12.40;99.90;;;;;;4823397;29;20182;-84
2022/05/28 07:26:03;;;;;;;8.13;1.48;;;12.60;99.90;;;;;;4825212;29;20174;-84
2022/05/28 07:28:33;;;;;;;4.90;1.27;;;12.70;99.90;;;;;;4823798;29;20263;-83
2022/05/28 07:31:02;;;;;;;6.32;1.60;;;12.60;99.90;;;;;;4823952;29;20247;-83
2022/05/28 07:33:33;;;;;;;6.22;1.52;;;12.60;99.90;;;;;;4824146;29;20345;-84
2022/05/28 07:35:59;;;;;;;5.43;1.27;;;12.80;99.90;;;;;;4823631;29;20618;-82
2022/05/28 07:38:26;;;;;;;8.18;1.60;;;13.00;99.90;;;;;;4825106;29;20186;-80
2022/05/28 07:40:53;;;;;;;9.07;1.85;;;13.20;99.90;;;;;;4825064;29;20178;-84
2022/05/28 07:43:20;;;;;;;5.50;1.58;;;13.10;99.90;;;;;;4825049;29;20249;-85
2022/05/28 07:45:46;;;;;;;8.75;1.75;;;13.00;99.90;;;;;;4824521;29;20184;-84
2022/05/28 07:48:14;;;;;;;5.97;1.70;;;13.00;99.90;;;;;;4831971;29;20189;-84
2022/05/28 07:50:40;;;;;;;9.65;1.65;;;12.70;99.90;;;;;;4841775;29;20177;-85
2022/05/28 07:53:06;;;;;;;8.25;1.65;;;12.50;99.90;;;;;;4843293;29;20177;-84
2022/05/28 07:55:32;;;;;;;6.18;1.20;;;12.40;99.90;;;;;;4843052;29;20169;-82
2022/05/28 07:58:04;;;;;;;11.27;1.63;;;12.40;99.90;;;;;;4841904;29;20568;-83
2022/05/28 08:00:30;;;;;;;5.13;1.50;;;12.50;99.90;;;;;;4842090;29;20189;-82
2022/05/28 08:02:56;;;;;;;11.05;1.70;;;12.70;99.90;;;;;;4843250;29;20234;-83
2022/05/28 08:05:22;;;;;;;7.25;1.45;;;12.90;99.90;;;;;;4830606;29;20214;-85
2022/05/28 08:07:48;;;;;;;5.63;1.77;;;13.00;99.90;;;;;;4810095;29;20208;-85
2022/05/28 08:10:14;;;;;;;4.75;1.35;;;12.90;99.90;;;;;;4810007;29;20182;-84
2022/05/28 08:12:40;;;;;;;8.60;1.40;;;12.70;99.90;;;;;;4809821;29;20222;-85
2022/05/28 08:15:06;;;;;;;8.75;1.70;;;12.50;99.90;;;;;;4823823;29;20631;-85
2022/05/28 08:17:32;;;;;;;6.10;1.55;;;12.50;99.90;;;;;;4814963;29;20275;-85
2022/05/28 08:19:58;;;;;;;10.23;2.00;;;12.80;99.90;;;;;;4844743;29;20589;-85
2022/05/28 08:25:08;;;;;;;4.35;1.63;;;13.20;99.90;;;;;;4846168;29;20176;-85
2022/05/28 08:27:36;;;;;;;7.82;1.58;;;13.40;99.90;;;;;;4845925;29;20174;-84
2022/05/28 08:30:03;;;;;;;10.85;2.30;;;13.70;99.90;;;;;;4844898;29;20193;-84
2022/05/28 08:32:29;;;;;;;9.32;2.05;;;13.80;99.90;;;;;;4844592;29;20246;-83
2022/05/28 08:34:55;;;;;;;6.05;1.48;;;13.90;99.90;;;;;;4844221;29;20177;-83
2022/05/28 08:37:20;;;;;;;6.88;1.73;;;13.90;99.90;;;;;;4844496;29;20185;-85
2022/05/28 08:39:46;;;;;;;8.95;1.90;;;13.80;99.90;;;;;;4844613;29;20185;-85
2022/05/28 08:42:14;;;;;;;7.93;1.90;;;13.50;99.90;;;;;;4845725;29;20185;-83
2022/05/28 08:44:41;;;;;;;5.78;1.42;;;13.70;99.90;;;;;;4844349;29;20633;-83
2022/05/28 08:47:16;;;;;;;8.82;1.63;;;13.80;99.90;;;;;;4844238;29;20189;-84
2022/05/28 08:49:42;;;;;;;11.48;2.20;;;13.70;99.90;;;;;;4808808;29;20190;-83
2022/05/28 08:52:10;;;;;;;9.13;1.75;;;13.60;99.90;;;;;;4807342;29;20283;-83
2022/05/28 08:54:57;;;;;;;11.77;2.00;;;13.60;99.90;;;;;;4808738;29;20175;-82
2022/05/28 08:57:46;;;;;;;8.82;1.60;;;13.80;99.90;;;;;;4808954;29;20167;-83
2022/05/28 09:00:16;;;;;;;8.90;1.90;;;14.00;99.90;;;;;;4807454;29;20178;-83
2022/05/28 09:02:46;;;;;;;11.30;1.75;;;14.00;99.90;;;;;;4812983;29;20182;-82
2022/05/28 09:05:34;;;;;;;8.00;1.70;;;14.20;99.90;;;;;;4825197;29;20182;-82
2022/05/28 09:08:03;;;;;;;5.20;1.50;;;14.50;99.90;;;;;;4825665;29;20186;-83
2022/05/28 09:10:39;;;;;;;4.65;1.60;;;14.50;99.90;;;;;;4825079;29;20194;-82
2022/05/28 09:13:24;;;;;;;7.70;1.77;;;14.30;99.90;;;;;;4826876;29;20552;-83
2022/05/28 09:15:51;;;;;;;7.15;1.48;;;14.30;99.90;;;;;;4826461;29;20234;-83
2022/05/28 09:18:19;;;;;;;6.15;1.20;;;14.20;99.90;;;;;;4834436;29;20201;-84
2022/05/28 09:20:45;;;;;;;7.97;1.80;;;14.20;99.90;;;;;;4843503;29;20185;-84
2022/05/28 09:23:11;;;;;;;8.55;1.52;;;14.30;99.90;;;;;;4843654;29;20497;-82
2022/05/28 09:25:43;;;;;;;7.03;1.50;;;14.40;99.90;;;;;;4843684;29;20186;-80
2022/05/28 09:28:17;;;;;;;5.82;1.35;;;14.30;99.90;;;;;;4843553;29;20240;-84
2022/05/28 09:31:04;;;;;;;5.10;1.20;;;14.20;99.90;;;;;;4843497;29;20229;-82
2022/05/28 09:33:53;;;;;;;9.82;1.75;;;14.00;99.90;;;;;;4843158;29;20193;-84
2022/05/28 09:36:40;;;;;;;4.80;1.27;;;13.80;99.90;;;;;;4843905;29;20229;-84
2022/05/28 09:39:16;;;;;;;8.50;1.75;;;13.50;99.90;;;;;;4828271;29;20540;-84
2022/05/28 09:41:57;;;;;;;3.65;1.17;;;13.20;99.90;;;;;;4825304;29;20725;-87
2022/05/28 09:44:49;;;;;;;5.25;1.45;;;13.00;99.90;;;;;;4825277;29;20540;-85
2022/05/28 09:47:19;;;;;;;9.57;1.65;;;12.80;99.90;;;;;;4824708;29;20194;-85
2022/05/28 09:49:56;;;;;;;3.58;1.45;;;12.60;99.90;;;;;;4843515;29;20185;-85
2022/05/28 09:52:22;;;;;;;7.13;2.05;;;12.50;99.90;;;;;;4843290;29;20272;-84
2022/05/28 09:54:48;;;;;;;5.90;1.52;;;12.40;99.90;;;;;;4843291;29;20273;-85
2022/05/28 09:57:23;;;;;;;7.93;1.13;;;12.10;99.90;;;;;;4844378;29;20173;-86
2022/05/28 09:59:57;;;;;;;7.55;1.48;;;12.10;99.90;;;;;;4843397;29;20181;-85
2022/05/28 10:02:28;;;;;;;7.28;1.85;;;12.10;99.90;;;;;;4844451;29;20173;-84
2022/05/28 10:05:14;;;;;;;5.70;1.60;;;12.30;99.90;;;;;;4842765;29;20177;-85
2022/05/28 10:07:46;;;;;;;6.20;1.40;;;12.50;99.90;;;;;;4822840;29;20248;-84
2022/05/28 10:10:52;;;;;;;2.70;1.02;;;12.80;99.90;;;;;;4812278;29;20205;-85
2022/05/28 10:13:19;;;;;;;4.32;1.23;;;13.20;99.90;;;;;;4811119;29;20311;-84
2022/05/28 10:15:55;;;;;;;4.60;1.50;;;13.40;99.90;;;;;;4835855;29;20190;-85
2022/05/28 10:18:25;;;;;;;6.72;1.52;;;13.70;99.90;;;;;;4837136;29;20189;-84
2022/05/28 10:21:12;;;;;;;9.23;2.17;;;14.10;99.90;;;;;;4832511;29;20200;-84
2022/05/28 10:23:42;;;;;;;7.03;1.77;;;14.40;99.90;;;;;;4836280;29;20200;-86
2022/05/28 10:26:34;;;;;;;6.32;1.50;;;14.50;99.90;;;;;;4830039;29;20282;-86
2022/05/28 10:29:05;;;;;;;7.05;1.88;;;14.80;99.90;;;;;;4831731;29;20607;-85
2022/05/28 10:31:37;;;;;;;6.85;1.52;;;15.10;99.90;;;;;;4832669;29;20639;-85
2022/05/28 10:34:04;;;;;;;6.03;1.85;;;15.30;99.90;;;;;;4833491;29;20284;-84
2022/05/28 10:36:33;;;;;;;6.40;1.58;;;15.30;99.90;;;;;;4827411;29;20902;-86
2022/05/28 10:39:11;;;;;;;6.43;1.55;;;15.30;99.90;;;;;;4821393;29;20304;-88
2022/05/28 10:41:38;;;;;;;7.82;1.98;;;15.40;99.90;;;;;;4826540;29;20613;-87
2022/05/28 10:44:06;;;;;;;7.03;1.60;;;15.30;99.90;;;;;;4831252;29;20194;-86
2022/05/28 10:47:15;;;;;;;7.80;1.50;;;15.30;99.90;;;;;;4828600;29;20249;-86
2022/05/28 10:50:03;;;;;;;8.88;1.50;;;15.40;99.90;;;;;;4830217;29;20216;-87
2022/05/28 10:52:43;;;;;;;12.20;2.05;;;15.50;99.90;;;;;;4826606;29;20226;-87
2022/05/28 10:55:14;;;;;;;7.07;1.30;;;15.60;99.90;;;;;;4827752;29;20613;-86
2022/05/28 10:57:58;;;;;;;6.32;1.40;;;15.50;99.90;;;;;;4828403;29;20697;-85
2022/05/28 11:00:33;;;;;;;6.40;1.70;;;15.50;99.90;;;;;;4831499;29;20195;-87
2022/05/28 11:03:22;;;;;;;8.77;1.50;;;15.50;99.90;;;;;;4827775;29;20192;-88
2022/05/28 11:06:16;;;;;;;4.78;1.30;;;15.40;99.90;;;;;;4829460;29;20182;-86
2022/05/28 11:08:53;;;;;;;3.75;1.30;;;14.90;99.90;;;;;;4825323;29;20210;-85
2022/05/28 11:11:37;;;;;;;8.90;1.77;;;14.30;99.90;;;;;;4829840;29;20742;-85
2022/05/28 11:14:30;;;;;;;5.22;1.38;;;13.80;99.90;;;;;;4830191;29;20197;-85
2022/05/28 11:17:20;;;;;;;8.77;1.67;;;13.80;99.90;;;;;;4826349;29;20254;-82
2022/05/28 11:20:14;;;;;;;7.68;1.50;;;14.40;99.90;;;;;;4829794;29;20354;-83
2022/05/28 11:23:00;;;;;;;4.32;1.20;;;14.70;99.90;;;;;;4829554;29;20221;-83
2022/05/28 11:25:30;;;;;;;4.05;0.95;;;14.90;99.90;;;;;;4831469;29;20242;-81
2022/05/28 11:28:20;;;;;;;4.25;1.20;;;15.20;96.40;;;;;;4833836;29;20233;-83
2022/05/28 11:30:50;;;;;;;7.97;1.33;;;15.20;98.10;;;;;;4833387;29;20293;-84
2022/05/28 11:33:27;;;;;;;5.30;1.42;;;15.40;94.90;;;;;;4828655;29;20205;-85
2022/05/28 11:36:00;;;;;;;2.90;1.00;;;15.30;96.90;;;;;;4825339;29;20604;-84
2022/05/28 11:38:36;;;;;;;6.63;1.42;;;15.60;97.60;;;;;;4838694;29;20226;-85
2022/05/28 11:41:19;;;;;;;3.95;1.27;;;15.80;97.00;;;;;;4815833;29;20229;-84
2022/05/28 11:43:52;;;;;;;5.72;1.30;;;16.10;95.40;;;;;;4808986;29;20217;-83
2022/05/28 11:46:31;;;;;;;6.25;1.38;;;16.30;98.50;;;;;;4808845;29;20520;-84
2022/05/28 11:51:57;;;;;;;5.28;1.48;;;16.70;95.30;;;;;;4846601;29;20215;-82
2022/05/28 11:55:02;;;;;;;6.05;0.90;;;16.50;95.80;;;;;;4846492;29;20604;-84
2022/05/28 11:58:00;;;;;;;5.60;1.45;;;16.10;95.20;;;;;;4844314;29;20335;-83
2022/05/28 12:00:30;;;;;;;8.55;1.40;;;15.60;95.40;;;;;;4835674;29;20525;-84
2022/05/28 12:03:03;;;;;;;7.57;1.25;;;15.80;97.30;;;;;;4828021;29;20702;-84
2022/05/28 12:05:41;;;;;;;4.95;1.30;;;16.30;96.60;;;;;;4826307;29;20525;-83
2022/05/28 12:08:17;;;;;;;3.22;1.08;;;16.80;95.40;;;;;;4828008;29;20211;-85
2022/05/28 12:10:51;;;;;;;4.05;1.30;;;16.70;92.30;;;;;;4828026;29;20253;-86
2022/05/28 12:13:39;;;;;;;9.65;1.30;;;16.70;91.10;;;;;;4826991;29;20192;-85
2022/05/28 12:16:25;;;;;;;4.50;1.13;;;16.60;91.00;;;;;;4826603;29;20178;-82
2022/05/28 12:19:11;;;;;;;5.40;1.42;;;16.70;90.90;;;;;;4838556;29;20205;-84
2022/05/28 12:21:38;;;;;;;3.65;1.30;;;16.90;94.00;;;;;;4845854;29;20173;-82
2022/05/28 12:24:10;;;;;;;7.47;1.52;;;17.20;91.80;;;;;;4845851;29;20181;-84
2022/05/28 12:26:48;;;;;;;2.83;1.08;;;17.50;94.70;;;;;;4846109;29;20166;-84
2022/05/28 12:29:33;;;;;;;6.45;1.33;;;17.70;91.40;;;;;;4845957;29;20244;-83
2022/05/28 12:32:17;;;;;;;5.38;1.20;;;17.20;91.50;;;;;;4845968;29;20205;-84
2022/05/28 12:35:21;;;;;;;10.32;1.48;;;16.70;93.30;;;;;;4845764;29;20229;-83
2022/05/28 12:38:29;;;;;;;3.63;1.13;;;16.30;93.30;;;;;;4845153;29;20193;-84
2022/05/28 12:40:59;;;;;;;6.45;1.55;;;16.00;95.80;;;;;;4826162;29;20185;-84
2022/05/28 12:43:32;;;;;;;6.03;1.65;;;15.80;94.70;;;;;;4826919;29;20186;-83
2022/05/28 12:46:12;;;;;;;7.10;1.50;;;15.70;94.40;;;;;;4827515;29;20178;-83
2022/05/28 12:48:39;;;;;;;5.75;1.10;;;15.30;95.30;;;;;;4826868;29;20198;-82
2022/05/28 12:51:45;;;;;;;8.18;0.77;;;15.10;96.50;;;;;;4826036;29;20189;-85
2022/05/28 12:54:23;;;;;;;10.43;0.98;;;14.80;94.90;;;;;;4823566;29;20182;-82
2022/05/28 12:56:49;;;;;;;6.13;1.05;;;14.60;96.00;;;;;;4827041;29;20174;-83
2022/05/28 12:59:30;;;;;;;3.92;1.13;;;14.60;96.30;;;;;;4825715;29;20186;-83
2022/05/28 13:02:24;;;;;;;6.43;1.02;;;15.10;97.70;;;;;;4825651;29;20584;-84
2022/05/28 13:05:09;;;;;;;4.07;0.95;;;15.70;95.30;;;;;;4825274;29;20266;-85
2022/05/28 13:07:42;;;;;;;6.72;1.48;;;16.20;94.10;;;;;;4825363;29;20174;-85
2022/05/28 13:10:11;;;;;;;3.05;0.90;;;16.20;93.20;;;;;;4826088;29;20794;-86
2022/05/28 13:12:55;;;;;;;5.95;1.30;;;16.50;92.70;;;;;;4826909;29;20217;-83
2022/05/28 13:15:55;;;;;;;5.05;0.88;;;16.60;91.70;;;;;;4825594;29;20522;-84
2022/05/28 13:18:48;;;;;;;5.22;1.10;;;16.70;91.90;;;;;;4836059;29;20245;-84